Palatine — 9HA2152 — position and weather

sailwx.info

Track history (hours):
 
Tides and Currents Weather Stations Pressure Air Temp Water Temp Dewpoint Dewpoint Depression Visibility Wind Speed Wind Dir Waves Ship Positions

Palatine

Last reported at 2018-May-19 18:02 UTC. Time now 2018-May-20 10:00 UTC.
Position N 41°15' W 008°48'.

Length 194 m; draft 6.7 m.

Type: Ship. MMSI: 248064000.

Date/timePositionNaut miles runAvg speedWind from/ knotsBaromVisibWave heightAir tempDewpointWater temp
2018-May-19 18:02N 41°15' W 008°48'016.6
2018-May-19 18:00N 41°15' W 008°48'612.0
2018-May-19 17:30N 41°11' W 008°42'0 0.7
2018-May-19 17:00N 41°11' W 008°42'0 0.0
2018-May-19 16:27N 41°11' W 008°42'0 0.0
2018-May-19 15:57N 41°11' W 008°42'0 0.0
2018-May-19 15:26N 41°11' W 008°42'0 0.0
2018-May-19 14:44N 41°11' W 008°42'0 0.0
2018-May-19 14:26N 41°11' W 008°42'0 0.0
2018-May-19 13:56N 41°11' W 008°42'0 0.0
2018-May-19 13:26N 41°11' W 008°42'0 0.0
2018-May-19 12:55N 41°11' W 008°42'0 0.0
2018-May-19 12:25N 41°11' W 008°42'0 0.0
2018-May-19 11:55N 41°11' W 008°42'0 0.0
2018-May-19 11:25N 41°11' W 008°42'0 0.0
2018-May-19 11:01N 41°11' W 008°42'0 0.0
2018-May-19 10:30N 41°11' W 008°42'0 0.0
2018-May-19 09:54N 41°11' W 008°42'0 0.0
2018-May-19 09:30N 41°11' W 008°42'0 0.0
2018-May-19 09:00N 41°11' W 008°42'0 0.0
2018-May-19 08:23N 41°11' W 008°42'0 0.0
2018-May-19 07:59N 41°11' W 008°42'0 0.0
2018-May-19 07:29N 41°11' W 008°42'0 0.0
2018-May-19 06:59N 41°11' W 008°42'0 0.3
2018-May-19 06:30N 41°11' W 008°42'3 5.3
2018-May-19 06:00N 41°09' W 008°45'714.8
2018-May-19 05:30N 41°16' W 008°49'37012.9
2018-May-18 00:50N 47°18' W 007°03'514.4
2018-May-18 00:30N 47°22' W 007°00'714.9
2018-May-18 00:01N 47°29' W 006°56'815.3
2018-May-17 23:28N 47°36' W 006°49'1316.2
2018-May-17 22:40N 47°47' W 006°39'317.5
2018-May-17 22:30N 47°49' W 006°37'917.8
2018-May-17 22:00N 47°57' W 006°30'1017.7
2018-May-17 21:28N 48°06' W 006°24'1017.6
2018-May-17 20:54N 48°15' W 006°19'717.5
2018-May-17 20:30N 48°21' W 006°15'917.1
2018-May-17 20:00N 48°29' W 006°09'816.5
2018-May-17 19:30N 48°36' W 006°03'815.9
2018-May-17 19:00N 48°43' W 005°57'815.3
2018-May-17 18:30N 48°49' W 005°50'714.7
2018-May-17 18:00N 48°55' W 005°42'714.4
2018-May-17 17:30N 48°60' W 005°35'714.1
2018-May-17 17:00N 49°04' W 005°27'714.1
2018-May-17 16:31N 49°08' W 005°18'714.0
2018-May-17 16:00N 49°12' W 005°08'713.2
2018-May-17 15:31N 49°15' W 004°60'1015.7
2018-May-17 14:54N 49°20' W 004°47'716.4
2018-May-17 14:29N 49°23' W 004°38'817.0
2018-May-17 14:00N 49°27' W 004°26'917.7
2018-May-17 13:30N 49°31' W 004°15'918.1
2018-May-17 13:00N 49°36' W 004°03'918.2
2018-May-17 12:30N 49°40' W 003°50'1018.0
2018-May-17 11:58N 49°44' W 003°37'817.5
2018-May-17 11:29N 49°49' W 003°26'817.0
2018-May-17 11:00N 49°53' W 003°15'816.2
2018-May-17 10:31N 49°57' W 003°04'815.3
2018-May-17 10:00N 50°01' W 002°54'714.6
2018-May-17 09:30N 50°03' W 002°43'714.0
2018-May-17 09:00N 50°05' W 002°33'713.5
2018-May-17 08:31N 50°07' W 002°23'713.3
2018-May-17 08:00N 50°08' W 002°13'713.5
2018-May-17 07:30N 50°10' W 002°02'714.1
2018-May-17 07:00N 50°12' W 001°52'714.9
2018-May-17 06:30N 50°15' W 001°41'816.0
2018-May-17 06:00N 50°17' W 001°29'917.2
2018-May-17 05:30N 50°19' W 001°16'918.3
2018-May-17 05:01N 50°22' W 001°02'1019.0
2018-May-17 04:31N 50°23' W 000°47'1019.0
2018-May-17 04:00N 50°26' W 000°33'918.6
2018-May-17 03:31N 50°28' W 000°19'918.1
2018-May-17 03:01N 50°31' W 000°06'917.9
2018-May-17 02:31N 50°33' E 000°08'917.7
2018-May-17 02:01N 50°36' E 000°21'917.0
2018-May-17 01:29N 50°39' E 000°35'816.5
2018-May-17 01:00N 50°43' E 000°45'815.8
2018-May-17 00:31N 50°48' E 000°55'1115.3
2018-May-16 23:48N 50°55' E 001°09'615.2
2018-May-16 23:24N 50°58' E 001°16'615.5
2018-May-16 23:00N 51°02' E 001°24'816.8
2018-May-16 22:31N 51°07' E 001°35'917.6
2018-May-16 22:01N 51°13' E 001°45'918.7
2018-May-16 21:31N 51°21' E 001°53'918.3
2018-May-16 21:01N 51°28' E 002°02'918.1
2018-May-16 20:30N 51°35' E 002°12'917.8
2018-May-16 19:59N 51°41' E 002°22'917.4
2018-May-16 19:29N 51°48' E 002°31'916.8
2018-May-16 18:58N 51°54' E 002°41'816.3
2018-May-16 18:29N 51°60' E 002°50'714.8
2018-May-16 18:00N 52°01' E 003°01'815.1
2018-May-16 17:29N 52°02' E 003°14'714.9
2018-May-16 17:00N 52°03' E 003°25'714.4
2018-May-16 16:31N 52°03' E 003°37'714.2
2018-May-16 16:00N 52°04' E 003°49'613.3
2018-May-16 15:31N 52°01' E 003°59'713.6
2018-May-16 15:00N 51°58' E 004°08'4 7.8
2018-May-16 14:30N 51°55' E 004°13'2 2.7
2018-May-16 13:55N 51°54' E 004°14'0 0.0
2018-May-16 13:25N 51°54' E 004°14'0 0.0
2018-May-16 12:55N 51°54' E 004°14'0 0.0
2018-May-16 12:25N 51°54' E 004°14'0 0.0
2018-May-16 11:55N 51°54' E 004°14'0 0.0
2018-May-16 11:30N 51°54' E 004°14'0 0.0
2018-May-16 11:00N 51°54' E 004°14'0 0.0
2018-May-16 10:30N 51°54' E 004°14'0 0.0
2018-May-16 10:00N 51°54' E 004°14'0 0.0
2018-May-16 09:30N 51°54' E 004°14'0 0.0
2018-May-16 08:59N 51°54' E 004°14'0 0.0
2018-May-16 08:29N 51°54' E 004°14'0 0.0
2018-May-16 07:59N 51°54' E 004°14'0 0.0
2018-May-16 07:29N 51°54' E 004°14'0 0.0
2018-May-16 06:59N 51°54' E 004°14'0 0.0
2018-May-16 06:28N 51°54' E 004°14'0 0.0
2018-May-16 05:58N 51°54' E 004°14'0 0.0
2018-May-16 05:28N 51°54' E 004°14'0 0.0
2018-May-16 04:58N 51°54' E 004°14'0 0.0
2018-May-16 04:27N 51°54' E 004°14'0 0.0
2018-May-16 03:57N 51°54' E 004°14'0 0.0
2018-May-16 03:30N 51°54' E 004°14'0 0.8
2018-May-16 03:01N 51°54' E 004°14'3 6.2
2018-May-16 02:30N 51°57' E 004°10'4 8.3
2018-May-16 02:00N 51°59' E 004°05'714.7
2018-May-16 01:30N 51°59' E 003°53'917.5
2018-May-16 01:01N 51°58' E 003°39'917.2
2018-May-16 00:30N 51°56' E 003°25'917.2
2018-May-16 00:00N 51°53' E 003°12'816.7
2018-May-15 23:30N 51°50' E 002°59'816.3
2018-May-15 23:00N 51°47' E 002°47'815.6
2018-May-15 22:30N 51°43' E 002°36'814.9
2018-May-15 22:00N 51°38' E 002°28'714.6
2018-May-15 21:30N 51°33' E 002°20'713.7
2018-May-15 21:00N 51°27' E 002°14'714.0
2018-May-15 20:30N 51°21' E 002°08'713.7
2018-May-15 20:00N 51°15' E 002°03'713.1
2018-May-15 19:30N 51°10' E 001°56'713.4
2018-May-15 19:00N 51°06' E 001°47'713.2
2018-May-15 18:30N 51°01' E 001°41'1013.0
2018-May-15 17:42N 50°54' E 001°29'313.4
2018-May-15 17:30N 50°51' E 001°27'814.3
2018-May-15 16:57N 50°44' E 001°23'714.2
2018-May-15 16:28N 50°38' E 001°17'915.3
2018-May-15 15:55N 50°33' E 001°06'715.3
2018-May-15 15:29N 50°29' E 000°57'715.4
2018-May-15 15:00N 50°26' E 000°47'1715.4
2018-May-15 13:55N 50°22' E 000°22'615.2
2018-May-15 13:30N 50°20' E 000°12'815.5
2018-May-15 13:00N 50°18' E 000°00'815.6
2018-May-15 12:30N 50°16' W 000°11'1315.7
2018-May-15 11:39N 50°12' W 000°31'215.9
2018-May-15 11:30N 50°12' W 000°35'816.4
2018-May-15 11:00N 50°09' W 000°47'917.3
2018-May-15 10:30N 50°07' W 000°60'918.1
2018-May-15 10:00N 50°04' W 001°14'918.9
2018-May-15 09:30N 50°02' W 001°28'1019.5
2018-May-15 09:00N 49°59' W 001°42'1019.8
2018-May-15 08:30N 49°57' W 001°57'1020.0
2018-May-15 08:00N 49°55' W 002°12'1020.0
2018-May-15 07:30N 49°52' W 002°27'1019.3
2018-May-15 07:00N 49°49' W 002°42'918.8
2018-May-15 06:30N 49°46' W 002°55'1018.4
2018-May-15 05:58N 49°41' W 003°09'818.4
2018-May-15 05:30N 49°37' W 003°20'918.4
2018-May-15 04:59N 49°32' W 003°32'4018.0
2018-May-15 02:48N 49°12' W 004°25'2717.4
2018-May-15 01:17N 48°58' W 004°59'9413.2
2018-May-14 18:09N 47°25' W 005°22'314.9
2018-May-14 17:57N 47°23' W 005°21'715.0
2018-May-14 17:30N 47°16' W 005°18'21015.2
2018-May-14 03:43N 43°54' W 003°54'1115.8
2018-May-14 03:02N 43°44' W 003°50'015.6
2018-May-14 03:00N 43°44' W 003°50'815.9
2018-May-14 02:30N 43°36' W 003°47'911.5
2018-May-14 01:45N 43°27' W 003°48'0 0.1
2018-May-13 20:23N 43°27' W 003°49'4 8.6
2018-May-13 19:52N 43°31' W 003°47'617.0
2018-May-13 19:30N 43°33' W 003°55'25710.1
2018-May-12 18:03N 41°15' W 008°48'114.4
2018-May-12 18:00N 41°14' W 008°47'510.9
2018-May-12 17:30N 41°11' W 008°42'0 0.7
2018-May-12 16:58N 41°11' W 008°42'0 0.0
2018-May-12 16:28N 41°11' W 008°42'0 0.0
2018-May-12 15:58N 41°11' W 008°42'0 0.0
2018-May-12 15:28N 41°11' W 008°42'0 0.0
2018-May-12 14:57N 41°11' W 008°42'0 0.0
2018-May-12 14:27N 41°11' W 008°42'0 0.0
2018-May-12 13:57N 41°11' W 008°42'0 0.0
2018-May-12 13:27N 41°11' W 008°42'0 0.0
2018-May-12 12:57N 41°11' W 008°42'0 0.0
2018-May-12 12:26N 41°11' W 008°42'0 0.0
2018-May-12 11:56N 41°11' W 008°42'0 0.0
2018-May-12 11:26N 41°11' W 008°42'0 0.0
2018-May-12 10:56N 41°11' W 008°42'0 0.0
2018-May-12 10:25N 41°11' W 008°42'0 0.0
2018-May-12 09:55N 41°11' W 008°42'0 0.0
2018-May-12 09:25N 41°11' W 008°42'0 0.0
2018-May-12 08:55N 41°11' W 008°42'0 0.0
2018-May-12 08:25N 41°11' W 008°42'0 0.0
2018-May-12 08:00N 41°11' W 008°42'0 0.0
2018-May-12 07:30N 41°11' W 008°42'0 0.0
2018-May-12 07:00N 41°11' W 008°42'0 0.7
2018-May-12 06:30N 41°11' W 008°42'510.7
2018-May-12 06:00N 41°14' W 008°48'56613.5
2018-May-10 12:03N 49°50' W 003°15'115.4
2018-May-10 11:59N 49°50' W 003°14'715.5
2018-May-10 11:30N 49°54' W 003°04'1216.0
2018-May-10 10:44N 50°00' W 002°47'416.6
2018-May-10 10:28N 50°02' W 002°41'8815.8
2018-May-10 04:57N 50°26' W 000°29'613.9
2018-May-10 04:30N 50°28' W 000°20'714.3
2018-May-10 04:00N 50°30' W 000°10'714.7
2018-May-10 03:30N 50°32' E 000°02'714.9
2018-May-10 03:00N 50°34' E 000°13'815.2
2018-May-10 02:30N 50°36' E 000°24'815.7
2018-May-10 02:00N 50°38' E 000°36'816.0
2018-May-10 01:30N 50°43' E 000°47'816.2
2018-May-10 01:00N 50°47' E 000°58'816.1
2018-May-10 00:30N 50°51' E 001°08'815.7
2018-May-10 00:00N 50°56' E 001°19'815.7
2018-May-09 23:30N 51°02' E 001°27'815.2
2018-May-09 23:00N 51°07' E 001°36'714.9
2018-May-09 22:30N 51°12' E 001°44'714.3
2018-May-09 22:00N 51°18' E 001°52'714.3
2018-May-09 21:30N 51°24' E 001°58'714.4
2018-May-09 21:00N 51°30' E 002°04'714.4
2018-May-09 20:30N 51°35' E 002°12'714.7
2018-May-09 20:00N 51°40' E 002°20'815.3
2018-May-09 19:30N 51°46' E 002°28'815.7
2018-May-09 19:00N 51°52' E 002°37'816.2
2018-May-09 18:30N 51°58' E 002°46'  
Track history (hours):
 
Tides and Currents Weather Stations Pressure Air Temp Water Temp Dewpoint Dewpoint Depression Visibility Wind Speed Wind Dir Waves Ship Positions

Palatine

Last reported at 2018-May-19 18:02 UTC. Time now 2018-May-20 10:00 UTC.
Position N 41°15' W 008°48'.

Length 194 m; draft 6.7 m.

Type: Ship. MMSI: 248064000.

Date/timePositionNaut miles runAvg speedWind from/ knotsBaromVisibWave heightAir tempDewpointWater temp
2018-May-19 18:02N 41°15' W 008°48'016.6
2018-May-19 18:00N 41°15' W 008°48'612.0
2018-May-19 17:30N 41°11' W 008°42'0 0.7
2018-May-19 17:00N 41°11' W 008°42'0 0.0
2018-May-19 16:27N 41°11' W 008°42'0 0.0
2018-May-19 15:57N 41°11' W 008°42'0 0.0
2018-May-19 15:26N 41°11' W 008°42'0 0.0
2018-May-19 14:44N 41°11' W 008°42'0 0.0
2018-May-19 14:26N 41°11' W 008°42'0 0.0
2018-May-19 13:56N 41°11' W 008°42'0 0.0
2018-May-19 13:26N 41°11' W 008°42'0 0.0
2018-May-19 12:55N 41°11' W 008°42'0 0.0
2018-May-19 12:25N 41°11' W 008°42'0 0.0
2018-May-19 11:55N 41°11' W 008°42'0 0.0
2018-May-19 11:25N 41°11' W 008°42'0 0.0
2018-May-19 11:01N 41°11' W 008°42'0 0.0
2018-May-19 10:30N 41°11' W 008°42'0 0.0
2018-May-19 09:54N 41°11' W 008°42'0 0.0
2018-May-19 09:30N 41°11' W 008°42'0 0.0
2018-May-19 09:00N 41°11' W 008°42'0 0.0
2018-May-19 08:23N 41°11' W 008°42'0 0.0
2018-May-19 07:59N 41°11' W 008°42'0 0.0
2018-May-19 07:29N 41°11' W 008°42'0 0.0
2018-May-19 06:59N 41°11' W 008°42'0 0.3
2018-May-19 06:30N 41°11' W 008°42'3 5.3
2018-May-19 06:00N 41°09' W 008°45'714.8
2018-May-19 05:30N 41°16' W 008°49'37012.9
2018-May-18 00:50N 47°18' W 007°03'514.4
2018-May-18 00:30N 47°22' W 007°00'714.9
2018-May-18 00:01N 47°29' W 006°56'815.3
2018-May-17 23:28N 47°36' W 006°49'1316.2
2018-May-17 22:40N 47°47' W 006°39'317.5
2018-May-17 22:30N 47°49' W 006°37'917.8
2018-May-17 22:00N 47°57' W 006°30'1017.7
2018-May-17 21:28N 48°06' W 006°24'1017.6
2018-May-17 20:54N 48°15' W 006°19'717.5
2018-May-17 20:30N 48°21' W 006°15'917.1
2018-May-17 20:00N 48°29' W 006°09'816.5
2018-May-17 19:30N 48°36' W 006°03'815.9
2018-May-17 19:00N 48°43' W 005°57'815.3
2018-May-17 18:30N 48°49' W 005°50'714.7
2018-May-17 18:00N 48°55' W 005°42'714.4
2018-May-17 17:30N 48°60' W 005°35'714.1
2018-May-17 17:00N 49°04' W 005°27'714.1
2018-May-17 16:31N 49°08' W 005°18'714.0
2018-May-17 16:00N 49°12' W 005°08'713.2
2018-May-17 15:31N 49°15' W 004°60'1015.7
2018-May-17 14:54N 49°20' W 004°47'716.4
2018-May-17 14:29N 49°23' W 004°38'817.0
2018-May-17 14:00N 49°27' W 004°26'917.7
2018-May-17 13:30N 49°31' W 004°15'918.1
2018-May-17 13:00N 49°36' W 004°03'918.2
2018-May-17 12:30N 49°40' W 003°50'1018.0
2018-May-17 11:58N 49°44' W 003°37'817.5
2018-May-17 11:29N 49°49' W 003°26'817.0
2018-May-17 11:00N 49°53' W 003°15'816.2
2018-May-17 10:31N 49°57' W 003°04'815.3
2018-May-17 10:00N 50°01' W 002°54'714.6
2018-May-17 09:30N 50°03' W 002°43'714.0
2018-May-17 09:00N 50°05' W 002°33'713.5
2018-May-17 08:31N 50°07' W 002°23'713.3
2018-May-17 08:00N 50°08' W 002°13'713.5
2018-May-17 07:30N 50°10' W 002°02'714.1
2018-May-17 07:00N 50°12' W 001°52'714.9
2018-May-17 06:30N 50°15' W 001°41'816.0
2018-May-17 06:00N 50°17' W 001°29'917.2
2018-May-17 05:30N 50°19' W 001°16'918.3
2018-May-17 05:01N 50°22' W 001°02'1019.0
2018-May-17 04:31N 50°23' W 000°47'1019.0
2018-May-17 04:00N 50°26' W 000°33'918.6
2018-May-17 03:31N 50°28' W 000°19'918.1
2018-May-17 03:01N 50°31' W 000°06'917.9
2018-May-17 02:31N 50°33' E 000°08'917.7
2018-May-17 02:01N 50°36' E 000°21'917.0
2018-May-17 01:29N 50°39' E 000°35'816.5
2018-May-17 01:00N 50°43' E 000°45'815.8
2018-May-17 00:31N 50°48' E 000°55'1115.3
2018-May-16 23:48N 50°55' E 001°09'615.2
2018-May-16 23:24N 50°58' E 001°16'615.5
2018-May-16 23:00N 51°02' E 001°24'816.8
2018-May-16 22:31N 51°07' E 001°35'917.6
2018-May-16 22:01N 51°13' E 001°45'918.7
2018-May-16 21:31N 51°21' E 001°53'918.3
2018-May-16 21:01N 51°28' E 002°02'918.1
2018-May-16 20:30N 51°35' E 002°12'917.8
2018-May-16 19:59N 51°41' E 002°22'917.4
2018-May-16 19:29N 51°48' E 002°31'916.8
2018-May-16 18:58N 51°54' E 002°41'816.3
2018-May-16 18:29N 51°60' E 002°50'714.8
2018-May-16 18:00N 52°01' E 003°01'815.1
2018-May-16 17:29N 52°02' E 003°14'714.9
2018-May-16 17:00N 52°03' E 003°25'714.4
2018-May-16 16:31N 52°03' E 003°37'714.2
2018-May-16 16:00N 52°04' E 003°49'613.3
2018-May-16 15:31N 52°01' E 003°59'713.6
2018-May-16 15:00N 51°58' E 004°08'4 7.8
2018-May-16 14:30N 51°55' E 004°13'2 2.7
2018-May-16 13:55N 51°54' E 004°14'0 0.0
2018-May-16 13:25N 51°54' E 004°14'0 0.0
2018-May-16 12:55N 51°54' E 004°14'0 0.0
2018-May-16 12:25N 51°54' E 004°14'0 0.0
2018-May-16 11:55N 51°54' E 004°14'0 0.0
2018-May-16 11:30N 51°54' E 004°14'0 0.0
2018-May-16 11:00N 51°54' E 004°14'0 0.0
2018-May-16 10:30N 51°54' E 004°14'0 0.0
2018-May-16 10:00N 51°54' E 004°14'0 0.0
2018-May-16 09:30N 51°54' E 004°14'0 0.0
2018-May-16 08:59N 51°54' E 004°14'0 0.0
2018-May-16 08:29N 51°54' E 004°14'0 0.0
2018-May-16 07:59N 51°54' E 004°14'0 0.0
2018-May-16 07:29N 51°54' E 004°14'0 0.0
2018-May-16 06:59N 51°54' E 004°14'0 0.0
2018-May-16 06:28N 51°54' E 004°14'0 0.0
2018-May-16 05:58N 51°54' E 004°14'0 0.0
2018-May-16 05:28N 51°54' E 004°14'0 0.0
2018-May-16 04:58N 51°54' E 004°14'0 0.0
2018-May-16 04:27N 51°54' E 004°14'0 0.0
2018-May-16 03:57N 51°54' E 004°14'0 0.0
2018-May-16 03:30N 51°54' E 004°14'0 0.8
2018-May-16 03:01N 51°54' E 004°14'3 6.2
2018-May-16 02:30N 51°57' E 004°10'4 8.3
2018-May-16 02:00N 51°59' E 004°05'714.7
2018-May-16 01:30N 51°59' E 003°53'917.5
2018-May-16 01:01N 51°58' E 003°39'917.2
2018-May-16 00:30N 51°56' E 003°25'917.2
2018-May-16 00:00N 51°53' E 003°12'816.7
2018-May-15 23:30N 51°50' E 002°59'816.3
2018-May-15 23:00N 51°47' E 002°47'815.6
2018-May-15 22:30N 51°43' E 002°36'814.9
2018-May-15 22:00N 51°38' E 002°28'714.6
2018-May-15 21:30N 51°33' E 002°20'713.7
2018-May-15 21:00N 51°27' E 002°14'714.0
2018-May-15 20:30N 51°21' E 002°08'713.7
2018-May-15 20:00N 51°15' E 002°03'713.1
2018-May-15 19:30N 51°10' E 001°56'713.4
2018-May-15 19:00N 51°06' E 001°47'713.2
2018-May-15 18:30N 51°01' E 001°41'1013.0
2018-May-15 17:42N 50°54' E 001°29'313.4
2018-May-15 17:30N 50°51' E 001°27'814.3
2018-May-15 16:57N 50°44' E 001°23'714.2
2018-May-15 16:28N 50°38' E 001°17'915.3
2018-May-15 15:55N 50°33' E 001°06'715.3
2018-May-15 15:29N 50°29' E 000°57'715.4
2018-May-15 15:00N 50°26' E 000°47'1715.4
2018-May-15 13:55N 50°22' E 000°22'615.2
2018-May-15 13:30N 50°20' E 000°12'815.5
2018-May-15 13:00N 50°18' E 000°00'815.6
2018-May-15 12:30N 50°16' W 000°11'1315.7
2018-May-15 11:39N 50°12' W 000°31'215.9
2018-May-15 11:30N 50°12' W 000°35'816.4
2018-May-15 11:00N 50°09' W 000°47'917.3
2018-May-15 10:30N 50°07' W 000°60'918.1
2018-May-15 10:00N 50°04' W 001°14'918.9
2018-May-15 09:30N 50°02' W 001°28'1019.5
2018-May-15 09:00N 49°59' W 001°42'1019.8
2018-May-15 08:30N 49°57' W 001°57'1020.0
2018-May-15 08:00N 49°55' W 002°12'1020.0
2018-May-15 07:30N 49°52' W 002°27'1019.3
2018-May-15 07:00N 49°49' W 002°42'918.8
2018-May-15 06:30N 49°46' W 002°55'1018.4
2018-May-15 05:58N 49°41' W 003°09'818.4
2018-May-15 05:30N 49°37' W 003°20'918.4
2018-May-15 04:59N 49°32' W 003°32'4018.0
2018-May-15 02:48N 49°12' W 004°25'2717.4
2018-May-15 01:17N 48°58' W 004°59'9413.2
2018-May-14 18:09N 47°25' W 005°22'314.9
2018-May-14 17:57N 47°23' W 005°21'715.0
2018-May-14 17:30N 47°16' W 005°18'21015.2
2018-May-14 03:43N 43°54' W 003°54'1115.8
2018-May-14 03:02N 43°44' W 003°50'015.6
2018-May-14 03:00N 43°44' W 003°50'815.9
2018-May-14 02:30N 43°36' W 003°47'911.5
2018-May-14 01:45N 43°27' W 003°48'0 0.1
2018-May-13 20:23N 43°27' W 003°49'4 8.6
2018-May-13 19:52N 43°31' W 003°47'617.0
2018-May-13 19:30N 43°33' W 003°55'25710.1
2018-May-12 18:03N 41°15' W 008°48'114.4
2018-May-12 18:00N 41°14' W 008°47'510.9
2018-May-12 17:30N 41°11' W 008°42'0 0.7
2018-May-12 16:58N 41°11' W 008°42'0 0.0
2018-May-12 16:28N 41°11' W 008°42'0 0.0
2018-May-12 15:58N 41°11' W 008°42'0 0.0
2018-May-12 15:28N 41°11' W 008°42'0 0.0
2018-May-12 14:57N 41°11' W 008°42'0 0.0
2018-May-12 14:27N 41°11' W 008°42'0 0.0
2018-May-12 13:57N 41°11' W 008°42'0 0.0
2018-May-12 13:27N 41°11' W 008°42'0 0.0
2018-May-12 12:57N 41°11' W 008°42'0 0.0
2018-May-12 12:26N 41°11' W 008°42'0 0.0
2018-May-12 11:56N 41°11' W 008°42'0 0.0
2018-May-12 11:26N 41°11' W 008°42'0 0.0
2018-May-12 10:56N 41°11' W 008°42'0 0.0
2018-May-12 10:25N 41°11' W 008°42'0 0.0
2018-May-12 09:55N 41°11' W 008°42'0 0.0
2018-May-12 09:25N 41°11' W 008°42'0 0.0
2018-May-12 08:55N 41°11' W 008°42'0 0.0
2018-May-12 08:25N 41°11' W 008°42'0 0.0
2018-May-12 08:00N 41°11' W 008°42'0 0.0
2018-May-12 07:30N 41°11' W 008°42'0 0.0
2018-May-12 07:00N 41°11' W 008°42'0 0.7
2018-May-12 06:30N 41°11' W 008°42'510.7
2018-May-12 06:00N 41°14' W 008°48'56613.5
2018-May-10 12:03N 49°50' W 003°15'115.4
2018-May-10 11:59N 49°50' W 003°14'715.5
2018-May-10 11:30N 49°54' W 003°04'1216.0
2018-May-10 10:44N 50°00' W 002°47'416.6
2018-May-10 10:28N 50°02' W 002°41'8815.8
2018-May-10 04:57N 50°26' W 000°29'613.9
2018-May-10 04:30N 50°28' W 000°20'714.3
2018-May-10 04:00N 50°30' W 000°10'714.7
2018-May-10 03:30N 50°32' E 000°02'714.9
2018-May-10 03:00N 50°34' E 000°13'815.2
2018-May-10 02:30N 50°36' E 000°24'815.7
2018-May-10 02:00N 50°38' E 000°36'816.0
2018-May-10 01:30N 50°43' E 000°47'816.2
2018-May-10 01:00N 50°47' E 000°58'816.1
2018-May-10 00:30N 50°51' E 001°08'815.7
2018-May-10 00:00N 50°56' E 001°19'815.7
2018-May-09 23:30N 51°02' E 001°27'815.2
2018-May-09 23:00N 51°07' E 001°36'714.9
2018-May-09 22:30N 51°12' E 001°44'714.3
2018-May-09 22:00N 51°18' E 001°52'714.3
2018-May-09 21:30N 51°24' E 001°58'714.4
2018-May-09 21:00N 51°30' E 002°04'714.4
2018-May-09 20:30N 51°35' E 002°12'714.7
2018-May-09 20:00N 51°40' E 002°20'815.3
2018-May-09 19:30N 51°46' E 002°28'815.7
2018-May-09 19:00N 51°52' E 002°37'816.2
2018-May-09 18:30N 51°58' E 002°46'  

Dump ship's entire track history